sensor_id;sensor_type;location;lat;lon;timestamp;temperature;humidity
9861;DHT22;4969;52.304;4.968;2022-09-09T00:02:19;24.32;57.25
9861;DHT22;4969;52.304;4.968;2022-09-09T00:04:53;24.08;57.37
9861;DHT22;4969;52.304;4.968;2022-09-09T00:07:35;24.09;57.37
9861;DHT22;4969;52.304;4.968;2022-09-09T00:10:13;24.02;57.83
9861;DHT22;4969;52.304;4.968;2022-09-09T00:12:50;23.86;58.25
9861;DHT22;4969;52.304;4.968;2022-09-09T00:15:19;24.05;57.86
9861;DHT22;4969;52.304;4.968;2022-09-09T00:17:52;24.09;57.27
9861;DHT22;4969;52.304;4.968;2022-09-09T00:20:26;24.10;56.71
9861;DHT22;4969;52.304;4.968;2022-09-09T00:23:00;24.13;57.80
9861;DHT22;4969;52.304;4.968;2022-09-09T00:25:33;24.06;57.52
9861;DHT22;4969;52.304;4.968;2022-09-09T00:28:02;24.08;57.82
9861;DHT22;4969;52.304;4.968;2022-09-09T00:30:31;23.84;58.45
9861;DHT22;4969;52.304;4.968;2022-09-09T00:33:11;23.84;57.51
9861;DHT22;4969;52.304;4.968;2022-09-09T00:35:44;24.13;57.73
9861;DHT22;4969;52.304;4.968;2022-09-09T00:38:14;24.08;57.80
9861;DHT22;4969;52.304;4.968;2022-09-09T00:40:46;23.95;57.23
9861;DHT22;4969;52.304;4.968;2022-09-09T00:43:24;23.84;57.98
9861;DHT22;4969;52.304;4.968;2022-09-09T00:46:19;23.84;57.80
9861;DHT22;4969;52.304;4.968;2022-09-09T00:48:53;23.88;58.43
9861;DHT22;4969;52.304;4.968;2022-09-09T00:51:28;23.93;57.77
9861;DHT22;4969;52.304;4.968;2022-09-09T00:54:09;24.13;56.69
9861;DHT22;4969;52.304;4.968;2022-09-09T00:56:45;24.20;57.55
9861;DHT22;4969;52.304;4.968;2022-09-09T00:59:22;23.98;56.87
9861;DHT22;4969;52.304;4.968;2022-09-09T01:01:51;24.08;57.67
9861;DHT22;4969;52.304;4.968;2022-09-09T01:04:24;24.08;56.90
9861;DHT22;4969;52.304;4.968;2022-09-09T01:06:59;24.10;57.66
9861;DHT22;4969;52.304;4.968;2022-09-09T01:09:31;24.17;57.57
9861;DHT22;4969;52.304;4.968;2022-09-09T01:12:03;24.10;57.80
9861;DHT22;4969;52.304;4.968;2022-09-09T01:14:40;24.20;56.69
9861;DHT22;4969;52.304;4.968;2022-09-09T01:17:14;24.09;57.63
9861;DHT22;4969;52.304;4.968;2022-09-09T01:19:52;24.10;57.77
9861;DHT22;4969;52.304;4.968;2022-09-09T01:22:28;24.24;57.47
9861;DHT22;4969;52.304;4.968;2022-09-09T01:25:22;24.21;57.73
9861;DHT22;4969;52.304;4.968;2022-09-09T01:27:55;24.02;57.61
9861;DHT22;4969;52.304;4.968;2022-09-09T01:30:22;23.82;57.73
9861;DHT22;4969;52.304;4.968;2022-09-09T01:32:52;23.99;58.16
9861;DHT22;4969;52.304;4.968;2022-09-09T01:35:29;23.84;57.60
9861;DHT22;4969;52.304;4.968;2022-09-09T01:37:57;23.86;58.43
9861;DHT22;4969;52.304;4.968;2022-09-09T01:40:24;24.08;57.83
9861;DHT22;4969;52.304;4.968;2022-09-09T01:42:53;23.84;58.51
9861;DHT22;4969;52.304;4.968;2022-09-09T01:45:21;23.61;58.46
9861;DHT22;4969;52.304;4.968;2022-09-09T01:47:48;23.84;58.63
9861;DHT22;4969;52.304;4.968;2022-09-09T01:50:16;24.03;58.06
9861;DHT22;4969;52.304;4.968;2022-09-09T01:52:43;24.16;57.56
9861;DHT22;4969;52.304;4.968;2022-09-09T01:55:11;23.85;57.02
9861;DHT22;4969;52.304;4.968;2022-09-09T01:57:43;23.92;58.39
9861;DHT22;4969;52.304;4.968;2022-09-09T02:00:16;24.26;57.30
9861;DHT22;4969;52.304;4.968;2022-09-09T02:02:48;24.14;57.51
9861;DHT22;4969;52.304;4.968;2022-09-09T02:05:22;24.05;57.77
9861;DHT22;4969;52.304;4.968;2022-09-09T02:07:55;24.02;57.71
9861;DHT22;4969;52.304;4.968;2022-09-09T02:10:29;23.98;58.08
9861;DHT22;4969;52.304;4.968;2022-09-09T02:13:02;24.12;57.46
9861;DHT22;4969;52.304;4.968;2022-09-09T02:15:34;23.93;57.30
9861;DHT22;4969;52.304;4.968;2022-09-09T02:18:04;23.99;57.96
9861;DHT22;4969;52.304;4.968;2022-09-09T02:20:34;24.10;57.72
9861;DHT22;4969;52.304;4.968;2022-09-09T02:23:01;24.02;57.79
9861;DHT22;4969;52.304;4.968;2022-09-09T02:25:29;23.99;57.68
9861;DHT22;4969;52.304;4.968;2022-09-09T02:27:56;24.05;57.21
9861;DHT22;4969;52.304;4.968;2022-09-09T02:30:25;24.03;57.73
9861;DHT22;4969;52.304;4.968;2022-09-09T02:32:56;23.84;58.07
9861;DHT22;4969;52.304;4.968;2022-09-09T02:35:24;23.92;58.07
9861;DHT22;4969;52.304;4.968;2022-09-09T02:37:55;23.79;58.26
9861;DHT22;4969;52.304;4.968;2022-09-09T02:40:24;23.86;58.06
9861;DHT22;4969;52.304;4.968;2022-09-09T02:42:50;23.84;58.12
9861;DHT22;4969;52.304;4.968;2022-09-09T02:45:19;24.03;57.86
9861;DHT22;4969;52.304;4.968;2022-09-09T02:47:50;23.99;57.91
9861;DHT22;4969;52.304;4.968;2022-09-09T02:50:25;23.95;57.87
9861;DHT22;4969;52.304;4.968;2022-09-09T02:53:02;23.88;57.51
9861;DHT22;4969;52.304;4.968;2022-09-09T02:55:38;23.62;58.32
9861;DHT22;4969;52.304;4.968;2022-09-09T02:58:07;23.79;58.35
9861;DHT22;4969;52.304;4.968;2022-09-09T03:00:36;23.95;57.97
9861;DHT22;4969;52.304;4.968;2022-09-09T03:03:03;23.95;57.94
9861;DHT22;4969;52.304;4.968;2022-09-09T03:05:32;23.55;58.23
9861;DHT22;4969;52.304;4.968;2022-09-09T03:07:59;23.37;57.62
9861;DHT22;4969;52.304;4.968;2022-09-09T03:10:25;23.57;58.35
9861;DHT22;4969;52.304;4.968;2022-09-09T03:12:52;23.44;59.19
9861;DHT22;4969;52.304;4.968;2022-09-09T03:15:18;23.38;59.31
9861;DHT22;4969;52.304;4.968;2022-09-09T03:17:45;23.23;59.32
9861;DHT22;4969;52.304;4.968;2022-09-09T03:20:12;23.13;59.71
9861;DHT22;4969;52.304;4.968;2022-09-09T03:22:40;23.16;59.24
9861;DHT22;4969;52.304;4.968;2022-09-09T03:25:07;23.29;59.28
9861;DHT22;4969;52.304;4.968;2022-09-09T03:27:34;23.24;58.58
9861;DHT22;4969;52.304;4.968;2022-09-09T03:30:01;23.16;58.43
9861;DHT22;4969;52.304;4.968;2022-09-09T03:32:29;23.22;59.93
9861;DHT22;4969;52.304;4.968;2022-09-09T03:34:56;23.19;59.84
9861;DHT22;4969;52.304;4.968;2022-09-09T03:37:23;23.02;60.30
9861;DHT22;4969;52.304;4.968;2022-09-09T03:39:51;22.95;60.53
9861;DHT22;4969;52.304;4.968;2022-09-09T03:42:19;23.02;59.97
9861;DHT22;4969;52.304;4.968;2022-09-09T03:44:46;22.93;60.48
9861;DHT22;4969;52.304;4.968;2022-09-09T03:47:16;23.22;59.93
9861;DHT22;4969;52.304;4.968;2022-09-09T03:49:43;23.16;59.79
9861;DHT22;4969;52.304;4.968;2022-09-09T03:52:10;23.24;59.73
9861;DHT22;4969;52.304;4.968;2022-09-09T03:54:37;23.29;59.69
9861;DHT22;4969;52.304;4.968;2022-09-09T03:57:05;23.22;59.32
9861;DHT22;4969;52.304;4.968;2022-09-09T03:59:32;23.38;59.39
9861;DHT22;4969;52.304;4.968;2022-09-09T04:02:00;23.34;59.46
9861;DHT22;4969;52.304;4.968;2022-09-09T04:04:27;23.38;59.44
9861;DHT22;4969;52.304;4.968;2022-09-09T04:06:54;23.38;58.66
9861;DHT22;4969;52.304;4.968;2022-09-09T04:09:20;23.26;59.08
9861;DHT22;4969;52.304;4.968;2022-09-09T04:11:47;23.10;59.93
9861;DHT22;4969;52.304;4.968;2022-09-09T04:14:16;23.37;57.49
9861;DHT22;4969;52.304;4.968;2022-09-09T04:16:42;23.26;60.11
9861;DHT22;4969;52.304;4.968;2022-09-09T04:19:09;23.51;59.18
9861;DHT22;4969;52.304;4.968;2022-09-09T04:21:37;23.44;59.21
9861;DHT22;4969;52.304;4.968;2022-09-09T04:24:06;23.07;59.23
9861;DHT22;4969;52.304;4.968;2022-09-09T04:26:33;22.91;58.06
9861;DHT22;4969;52.304;4.968;2022-09-09T04:29:00;23.13;58.98
9861;DHT22;4969;52.304;4.968;2022-09-09T04:31:27;23.24;59.92
9861;DHT22;4969;52.304;4.968;2022-09-09T04:33:54;23.34;59.32
9861;DHT22;4969;52.304;4.968;2022-09-09T04:36:20;23.44;57.91
9861;DHT22;4969;52.304;4.968;2022-09-09T04:38:47;23.38;59.47
9861;DHT22;4969;52.304;4.968;2022-09-09T04:41:14;23.37;59.10
9861;DHT22;4969;52.304;4.968;2022-09-09T04:43:41;23.16;59.46
9861;DHT22;4969;52.304;4.968;2022-09-09T04:46:08;23.09;58.70
9861;DHT22;4969;52.304;4.968;2022-09-09T04:48:36;23.26;59.79
9861;DHT22;4969;52.304;4.968;2022-09-09T04:51:04;23.15;59.85
9861;DHT22;4969;52.304;4.968;2022-09-09T04:53:32;23.15;59.82
9861;DHT22;4969;52.304;4.968;2022-09-09T04:56:03;22.95;59.65
9861;DHT22;4969;52.304;4.968;2022-09-09T04:58:31;22.44;59.96
9861;DHT22;4969;52.304;4.968;2022-09-09T05:01:03;22.50;60.70
9861;DHT22;4969;52.304;4.968;2022-09-09T05:03:30;22.98;60.57
9861;DHT22;4969;52.304;4.968;2022-09-09T05:06:04;22.67;58.25
9861;DHT22;4969;52.304;4.968;2022-09-09T05:08:31;22.55;61.17
9861;DHT22;4969;52.304;4.968;2022-09-09T05:10:58;22.81;59.84
9861;DHT22;4969;52.304;4.968;2022-09-09T05:13:25;22.41;59.83
9861;DHT22;4969;52.304;4.968;2022-09-09T05:15:52;22.68;60.94
9861;DHT22;4969;52.304;4.968;2022-09-09T05:18:19;22.79;59.89
9861;DHT22;4969;52.304;4.968;2022-09-09T05:20:47;23.02;60.18
9861;DHT22;4969;52.304;4.968;2022-09-09T05:23:15;23.29;59.60
9861;DHT22;4969;52.304;4.968;2022-09-09T05:25:41;23.43;58.46
9861;DHT22;4969;52.304;4.968;2022-09-09T05:28:08;23.27;59.20
9861;DHT22;4969;52.304;4.968;2022-09-09T05:30:37;23.30;58.96
9861;DHT22;4969;52.304;4.968;2022-09-09T05:33:03;23.31;58.53
9861;DHT22;4969;52.304;4.968;2022-09-09T05:35:31;23.29;56.94
9861;DHT22;4969;52.304;4.968;2022-09-09T05:37:59;23.30;59.30
9861;DHT22;4969;52.304;4.968;2022-09-09T05:40:28;23.27;58.70
9861;DHT22;4969;52.304;4.968;2022-09-09T05:42:55;23.06;59.64
9861;DHT22;4969;52.304;4.968;2022-09-09T05:45:25;23.06;59.25
9861;DHT22;4969;52.304;4.968;2022-09-09T05:47:52;23.13;59.79
9861;DHT22;4969;52.304;4.968;2022-09-09T05:50:20;23.43;58.89
9861;DHT22;4969;52.304;4.968;2022-09-09T05:52:47;23.58;58.38
9861;DHT22;4969;52.304;4.968;2022-09-09T05:55:15;23.30;57.76
9861;DHT22;4969;52.304;4.968;2022-09-09T05:57:48;23.33;58.94
9861;DHT22;4969;52.304;4.968;2022-09-09T06:00:15;23.41;58.75
9861;DHT22;4969;52.304;4.968;2022-09-09T06:02:41;23.65;58.12
9861;DHT22;4969;52.304;4.968;2022-09-09T06:05:08;23.29;58.59
9861;DHT22;4969;52.304;4.968;2022-09-09T06:07:35;23.41;58.83
9861;DHT22;4969;52.304;4.968;2022-09-09T06:10:03;23.15;58.56
9861;DHT22;4969;52.304;4.968;2022-09-09T06:12:29;23.12;59.32
9861;DHT22;4969;52.304;4.968;2022-09-09T06:14:57;23.38;58.72
9861;DHT22;4969;52.304;4.968;2022-09-09T06:17:24;23.50;57.39
9861;DHT22;4969;52.304;4.968;2022-09-09T06:19:50;23.51;58.50
9861;DHT22;4969;52.304;4.968;2022-09-09T06:22:17;23.74;58.06
9861;DHT22;4969;52.304;4.968;2022-09-09T06:24:44;24.16;56.66
9861;DHT22;4969;52.304;4.968;2022-09-09T06:27:11;23.88;57.38
9861;DHT22;4969;52.304;4.968;2022-09-09T06:29:39;24.01;57.34
9861;DHT22;4969;52.304;4.968;2022-09-09T06:32:06;24.09;56.96
9861;DHT22;4969;52.304;4.968;2022-09-09T06:34:34;24.12;56.41
9861;DHT22;4969;52.304;4.968;2022-09-09T06:37:00;24.09;56.99
9861;DHT22;4969;52.304;4.968;2022-09-09T06:39:27;23.86;57.48
9861;DHT22;4969;52.304;4.968;2022-09-09T06:41:53;23.71;57.58
9861;DHT22;4969;52.304;4.968;2022-09-09T06:44:22;23.75;57.59
9861;DHT22;4969;52.304;4.968;2022-09-09T06:46:52;23.79;57.47
9861;DHT22;4969;52.304;4.968;2022-09-09T06:49:20;23.33;57.49
9861;DHT22;4969;52.304;4.968;2022-09-09T06:51:47;23.31;59.10
9861;DHT22;4969;52.304;4.968;2022-09-09T06:54:14;23.44;58.45
9861;DHT22;4969;52.304;4.968;2022-09-09T06:56:41;23.40;58.28
9861;DHT22;4969;52.304;4.968;2022-09-09T06:59:09;23.34;57.68
9861;DHT22;4969;52.304;4.968;2022-09-09T07:01:38;23.44;58.37
9861;DHT22;4969;52.304;4.968;2022-09-09T07:04:05;23.77;57.66
9861;DHT22;4969;52.304;4.968;2022-09-09T07:06:35;23.55;56.72
9861;DHT22;4969;52.304;4.968;2022-09-09T07:09:04;23.53;58.25
9861;DHT22;4969;52.304;4.968;2022-09-09T07:11:33;23.59;58.22
9861;DHT22;4969;52.304;4.968;2022-09-09T07:14:00;23.73;58.02
9861;DHT22;4969;52.304;4.968;2022-09-09T07:16:27;23.65;57.72
9861;DHT22;4969;52.304;4.968;2022-09-09T07:18:54;23.40;58.43
9861;DHT22;4969;52.304;4.968;2022-09-09T07:21:24;23.61;58.16
9861;DHT22;4969;52.304;4.968;2022-09-09T07:23:53;23.29;58.82
9861;DHT22;4969;52.304;4.968;2022-09-09T07:26:21;23.67;57.80
9861;DHT22;4969;52.304;4.968;2022-09-09T07:28:49;23.57;58.10
9861;DHT22;4969;52.304;4.968;2022-09-09T07:31:17;23.53;58.23
9861;DHT22;4969;52.304;4.968;2022-09-09T07:33:44;23.57;57.49
9861;DHT22;4969;52.304;4.968;2022-09-09T07:36:13;23.64;58.07
9861;DHT22;4969;52.304;4.968;2022-09-09T07:38:41;23.65;57.84
9861;DHT22;4969;52.304;4.968;2022-09-09T07:41:12;23.91;57.19
9861;DHT22;4969;52.304;4.968;2022-09-09T07:43:39;23.79;57.62
9861;DHT22;4969;52.304;4.968;2022-09-09T07:46:07;23.81;57.04
9861;DHT22;4969;52.304;4.968;2022-09-09T07:48:33;23.84;57.68
9861;DHT22;4969;52.304;4.968;2022-09-09T07:51:08;24.01;57.15
9861;DHT22;4969;52.304;4.968;2022-09-09T07:53:36;23.82;57.21
9861;DHT22;4969;52.304;4.968;2022-09-09T07:56:08;24.01;57.26
9861;DHT22;4969;52.304;4.968;2022-09-09T07:58:38;23.79;57.69
9861;DHT22;4969;52.304;4.968;2022-09-09T08:01:09;24.03;57.18
9861;DHT22;4969;52.304;4.968;2022-09-09T08:03:37;24.21;56.62
9861;DHT22;4969;52.304;4.968;2022-09-09T08:06:05;23.93;57.04
9861;DHT22;4969;52.304;4.968;2022-09-09T08:08:33;23.85;57.67
9861;DHT22;4969;52.304;4.968;2022-09-09T08:11:04;23.98;57.29
9861;DHT22;4969;52.304;4.968;2022-09-09T08:13:33;24.13;56.55
9861;DHT22;4969;52.304;4.968;2022-09-09T08:16:12;24.14;56.98
9861;DHT22;4969;52.304;4.968;2022-09-09T08:18:39;23.96;56.99
9861;DHT22;4969;52.304;4.968;2022-09-09T08:21:07;24.01;56.93
9861;DHT22;4969;52.304;4.968;2022-09-09T08:23:38;24.19;56.54
9861;DHT22;4969;52.304;4.968;2022-09-09T08:26:07;24.27;56.07
9861;DHT22;4969;52.304;4.968;2022-09-09T08:28:34;24.16;56.53
9861;DHT22;4969;52.304;4.968;2022-09-09T08:31:10;24.20;55.52
9861;DHT22;4969;52.304;4.968;2022-09-09T08:33:37;24.27;55.70
9861;DHT22;4969;52.304;4.968;2022-09-09T08:36:05;24.26;56.04
9861;DHT22;4969;52.304;4.968;2022-09-09T08:38:34;24.33;55.97
9861;DHT22;4969;52.304;4.968;2022-09-09T08:41:09;24.32;55.87
9861;DHT22;4969;52.304;4.968;2022-09-09T08:43:40;24.21;55.96
9861;DHT22;4969;52.304;4.968;2022-09-09T08:46:12;24.29;55.86
9861;DHT22;4969;52.304;4.968;2022-09-09T08:48:50;24.09;56.33
9861;DHT22;4969;52.304;4.968;2022-09-09T08:51:21;24.01;56.27
9861;DHT22;4969;52.304;4.968;2022-09-09T08:53:50;23.67;56.71
9861;DHT22;4969;52.304;4.968;2022-09-09T08:56:21;23.86;56.72
9861;DHT22;4969;52.304;4.968;2022-09-09T08:58:49;24.06;56.21
9861;DHT22;4969;52.304;4.968;2022-09-09T09:01:39;24.10;56.19
9861;DHT22;4969;52.304;4.968;2022-09-09T09:04:26;24.14;56.02
9861;DHT22;4969;52.304;4.968;2022-09-09T09:07:00;23.98;56.17
9861;DHT22;4969;52.304;4.968;2022-09-09T09:09:36;23.64;56.58
9861;DHT22;4969;52.304;4.968;2022-09-09T09:12:11;23.61;57.40
9861;DHT22;4969;52.304;4.968;2022-09-09T09:14:40;23.74;56.76
9861;DHT22;4969;52.304;4.968;2022-09-09T09:17:12;23.82;56.35
9861;DHT22;4969;52.304;4.968;2022-09-09T09:19:41;23.91;56.72
9861;DHT22;4969;52.304;4.968;2022-09-09T09:22:16;23.85;56.36
9861;DHT22;4969;52.304;4.968;2022-09-09T09:24:51;23.92;56.70
9861;DHT22;4969;52.304;4.968;2022-09-09T09:27:22;23.99;56.12
9861;DHT22;4969;52.304;4.968;2022-09-09T09:29:54;23.99;55.72
9861;DHT22;4969;52.304;4.968;2022-09-09T09:32:24;23.96;56.34
9861;DHT22;4969;52.304;4.968;2022-09-09T09:34:55;24.03;56.06
9861;DHT22;4969;52.304;4.968;2022-09-09T09:37:26;23.75;56.66
9861;DHT22;4969;52.304;4.968;2022-09-09T09:39:54;23.36;57.58
9861;DHT22;4969;52.304;4.968;2022-09-09T09:42:20;23.62;57.24
9861;DHT22;4969;52.304;4.968;2022-09-09T09:44:47;23.86;56.50
9861;DHT22;4969;52.304;4.968;2022-09-09T09:47:19;23.44;56.34
9861;DHT22;4969;52.304;4.968;2022-09-09T09:49:54;23.27;57.85
9861;DHT22;4969;52.304;4.968;2022-09-09T09:52:24;23.86;56.24
9861;DHT22;4969;52.304;4.968;2022-09-09T09:54:51;23.51;57.21
9861;DHT22;4969;52.304;4.968;2022-09-09T09:57:23;24.08;56.00
9861;DHT22;4969;52.304;4.968;2022-09-09T10:00:00;23.85;56.66
9861;DHT22;4969;52.304;4.968;2022-09-09T10:02:37;23.77;57.09
9861;DHT22;4969;52.304;4.968;2022-09-09T10:05:14;23.86;56.52
9861;DHT22;4969;52.304;4.968;2022-09-09T10:07:41;23.89;56.42
9861;DHT22;4969;52.304;4.968;2022-09-09T10:10:13;24.03;56.35
9861;DHT22;4969;52.304;4.968;2022-09-09T10:12:49;24.10;56.24
9861;DHT22;4969;52.304;4.968;2022-09-09T10:15:29;24.10;56.10
9861;DHT22;4969;52.304;4.968;2022-09-09T10:18:05;24.10;56.19
9861;DHT22;4969;52.304;4.968;2022-09-09T10:20:44;24.33;56.01
9861;DHT22;4969;52.304;4.968;2022-09-09T10:23:23;24.10;56.10
9861;DHT22;4969;52.304;4.968;2022-09-09T10:26:04;24.05;56.23
9861;DHT22;4969;52.304;4.968;2022-09-09T10:28:48;24.10;55.94
9861;DHT22;4969;52.304;4.968;2022-09-09T10:31:23;24.12;55.65
9861;DHT22;4969;52.304;4.968;2022-09-09T10:33:57;24.29;56.06
9861;DHT22;4969;52.304;4.968;2022-09-09T10:36:29;24.48;55.55
9861;DHT22;4969;52.304;4.968;2022-09-09T10:38:59;24.47;55.58
9861;DHT22;4969;52.304;4.968;2022-09-09T10:41:47;24.47;55.82
9861;DHT22;4969;52.304;4.968;2022-09-09T10:44:33;24.33;55.62
9861;DHT22;4969;52.304;4.968;2022-09-09T10:47:15;24.33;56.09
9861;DHT22;4969;52.304;4.968;2022-09-09T10:50:13;24.43;55.91
9861;DHT22;4969;52.304;4.968;2022-09-09T10:52:49;24.32;56.12
9861;DHT22;4969;52.304;4.968;2022-09-09T10:55:20;24.48;55.67
9861;DHT22;4969;52.304;4.968;2022-09-09T10:57:47;24.47;55.79
9861;DHT22;4969;52.304;4.968;2022-09-09T11:00:17;24.63;55.75
9861;DHT22;4969;52.304;4.968;2022-09-09T11:02:46;24.64;55.63
9861;DHT22;4969;52.304;4.968;2022-09-09T11:05:17;24.88;54.88
9861;DHT22;4969;52.304;4.968;2022-09-09T11:07:48;24.85;55.12
9861;DHT22;4969;52.304;4.968;2022-09-09T11:10:22;24.63;55.51
9861;DHT22;4969;52.304;4.968;2022-09-09T11:12:54;24.53;56.02
9861;DHT22;4969;52.304;4.968;2022-09-09T11:15:29;24.48;56.27
9861;DHT22;4969;52.304;4.968;2022-09-09T11:18:01;24.39;55.73
9861;DHT22;4969;52.304;4.968;2022-09-09T11:20:31;24.44;56.51
9861;DHT22;4969;52.304;4.968;2022-09-09T11:23:01;24.46;56.56
9861;DHT22;4969;52.304;4.968;2022-09-09T11:25:32;24.29;57.01
9861;DHT22;4969;52.304;4.968;2022-09-09T11:28:18;24.20;57.69
9861;DHT22;4969;52.304;4.968;2022-09-09T11:30:59;24.24;57.86
9861;DHT22;4969;52.304;4.968;2022-09-09T11:33:47;24.09;58.18
9861;DHT22;4969;52.304;4.968;2022-09-09T11:36:41;24.27;57.20
9861;DHT22;4969;52.304;4.968;2022-09-09T11:42:07;24.61;57.36
9861;DHT22;4969;52.304;4.968;2022-09-09T11:44:33;24.84;56.39
9861;DHT22;4969;52.304;4.968;2022-09-09T11:47:00;24.85;57.00
9861;DHT22;4969;52.304;4.968;2022-09-09T11:49:28;25.02;56.32
9861;DHT22;4969;52.304;4.968;2022-09-09T11:51:56;24.79;55.60
9861;DHT22;4969;52.304;4.968;2022-09-09T11:54:30;24.89;55.68
9861;DHT22;4969;52.304;4.968;2022-09-09T11:56:57;24.99;55.03
9861;DHT22;4969;52.304;4.968;2022-09-09T11:59:26;25.05;54.87
9861;DHT22;4969;52.304;4.968;2022-09-09T12:01:55;25.12;54.65
9861;DHT22;4969;52.304;4.968;2022-09-09T12:04:29;25.24;54.26
9861;DHT22;4969;52.304;4.968;2022-09-09T12:06:59;25.29;54.11
9861;DHT22;4969;52.304;4.968;2022-09-09T12:09:33;25.16;55.08
9861;DHT22;4969;52.304;4.968;2022-09-09T12:12:22;25.18;54.79
9861;DHT22;4969;52.304;4.968;2022-09-09T12:14:58;25.18;55.11
9861;DHT22;4969;52.304;4.968;2022-09-09T12:17:27;25.11;54.88
9861;DHT22;4969;52.304;4.968;2022-09-09T12:20:02;25.02;55.10
9861;DHT22;4969;52.304;4.968;2022-09-09T12:22:38;25.01;55.23
9861;DHT22;4969;52.304;4.968;2022-09-09T12:25:16;25.18;54.91
9861;DHT22;4969;52.304;4.968;2022-09-09T12:27:57;25.02;55.45
9861;DHT22;4969;52.304;4.968;2022-09-09T12:30:29;25.22;54.93
9861;DHT22;4969;52.304;4.968;2022-09-09T12:33:01;25.20;54.85
9861;DHT22;4969;52.304;4.968;2022-09-09T12:35:29;25.33;54.56
9861;DHT22;4969;52.304;4.968;2022-09-09T12:37:59;25.29;54.68
9861;DHT22;4969;52.304;4.968;2022-09-09T12:40:28;25.43;54.19
9861;DHT22;4969;52.304;4.968;2022-09-09T12:42:56;25.23;54.90
9861;DHT22;4969;52.304;4.968;2022-09-09T12:45:26;25.13;55.03
9861;DHT22;4969;52.304;4.968;2022-09-09T12:47:56;25.12;55.45
9861;DHT22;4969;52.304;4.968;2022-09-09T12:50:24;24.92;55.87
9861;DHT22;4969;52.304;4.968;2022-09-09T12:52:53;24.92;56.00
9861;DHT22;4969;52.304;4.968;2022-09-09T12:55:23;24.91;55.89
9861;DHT22;4969;52.304;4.968;2022-09-09T12:57:52;24.88;56.11
9861;DHT22;4969;52.304;4.968;2022-09-09T13:00:23;24.85;56.09
9861;DHT22;4969;52.304;4.968;2022-09-09T13:02:51;24.89;55.73
9861;DHT22;4969;52.304;4.968;2022-09-09T13:05:21;24.98;55.49
9861;DHT22;4969;52.304;4.968;2022-09-09T13:07:48;24.91;55.67
9861;DHT22;4969;52.304;4.968;2022-09-09T13:10:23;24.86;55.88
9861;DHT22;4969;52.304;4.968;2022-09-09T13:12:53;24.92;55.76
9861;DHT22;4969;52.304;4.968;2022-09-09T13:15:24;24.82;56.06
9861;DHT22;4969;52.304;4.968;2022-09-09T13:17:54;24.88;56.62
9861;DHT22;4969;52.304;4.968;2022-09-09T13:20:22;24.68;57.11
9861;DHT22;4969;52.304;4.968;2022-09-09T13:22:51;24.76;56.68
9861;DHT22;4969;52.304;4.968;2022-09-09T13:25:23;24.74;56.83
9861;DHT22;4969;52.304;4.968;2022-09-09T13:27:58;24.86;56.65
9861;DHT22;4969;52.304;4.968;2022-09-09T13:30:28;24.85;56.62
9861;DHT22;4969;52.304;4.968;2022-09-09T13:33:17;24.69;57.10
9861;DHT22;4969;52.304;4.968;2022-09-09T13:35:46;24.85;56.91
9861;DHT22;4969;52.304;4.968;2022-09-09T13:38:14;24.78;57.32
9861;DHT22;4969;52.304;4.968;2022-09-09T13:40:52;24.79;57.37
9861;DHT22;4969;52.304;4.968;2022-09-09T13:43:22;24.85;57.15
9861;DHT22;4969;52.304;4.968;2022-09-09T13:45:54;24.92;57.04
9861;DHT22;4969;52.304;4.968;2022-09-09T13:48:21;24.88;57.38
9861;DHT22;4969;52.304;4.968;2022-09-09T13:50:54;24.91;57.43
9861;DHT22;4969;52.304;4.968;2022-09-09T13:53:20;24.96;57.36
9861;DHT22;4969;52.304;4.968;2022-09-09T13:55:47;25.05;57.06
9861;DHT22;4969;52.304;4.968;2022-09-09T13:58:15;25.05;57.23
9861;DHT22;4969;52.304;4.968;2022-09-09T14:00:45;24.92;57.58
9861;DHT22;4969;52.304;4.968;2022-09-09T14:03:12;24.86;57.94
9861;DHT22;4969;52.304;4.968;2022-09-09T14:05:39;24.91;58.05
9861;DHT22;4969;52.304;4.968;2022-09-09T14:08:06;24.86;58.12
9861;DHT22;4969;52.304;4.968;2022-09-09T14:10:33;24.91;57.93
9861;DHT22;4969;52.304;4.968;2022-09-09T14:13:01;24.88;57.85
9861;DHT22;4969;52.304;4.968;2022-09-09T14:15:27;24.88;57.97
9861;DHT22;4969;52.304;4.968;2022-09-09T14:17:55;24.91;57.91
9861;DHT22;4969;52.304;4.968;2022-09-09T14:20:24;24.92;57.80
9861;DHT22;4969;52.304;4.968;2022-09-09T14:22:51;25.05;57.36
9861;DHT22;4969;52.304;4.968;2022-09-09T14:25:18;25.05;57.48
9861;DHT22;4969;52.304;4.968;2022-09-09T14:27:45;24.99;57.64
9861;DHT22;4969;52.304;4.968;2022-09-09T14:30:12;25.03;57.68
9861;DHT22;4969;52.304;4.968;2022-09-09T14:32:39;25.09;57.55
9861;DHT22;4969;52.304;4.968;2022-09-09T14:35:08;25.15;57.46
9861;DHT22;4969;52.304;4.968;2022-09-09T14:37:34;25.24;57.27
9861;DHT22;4969;52.304;4.968;2022-09-09T14:40:01;25.22;57.26
9861;DHT22;4969;52.304;4.968;2022-09-09T14:42:28;25.27;57.04
9861;DHT22;4969;52.304;4.968;2022-09-09T14:44:55;25.19;57.20
9861;DHT22;4969;52.304;4.968;2022-09-09T14:47:22;25.18;57.31
9861;DHT22;4969;52.304;4.968;2022-09-09T14:49:48;25.18;57.60
9861;DHT22;4969;52.304;4.968;2022-09-09T14:52:17;25.11;57.74
9861;DHT22;4969;52.304;4.968;2022-09-09T14:54:43;25.02;57.98
9861;DHT22;4969;52.304;4.968;2022-09-09T14:57:10;25.03;57.79
9861;DHT22;4969;52.304;4.968;2022-09-09T14:59:36;24.88;58.21
9861;DHT22;4969;52.304;4.968;2022-09-09T15:02:03;24.95;58.06
9861;DHT22;4969;52.304;4.968;2022-09-09T15:04:30;24.91;58.13
9861;DHT22;4969;52.304;4.968;2022-09-09T15:06:56;24.99;57.97
9861;DHT22;4969;52.304;4.968;2022-09-09T15:09:24;24.96;57.90
9861;DHT22;4969;52.304;4.968;2022-09-09T15:11:51;24.98;57.91
9861;DHT22;4969;52.304;4.968;2022-09-09T15:14:18;24.98;57.94
9861;DHT22;4969;52.304;4.968;2022-09-09T15:16:44;25.01;57.82
9861;DHT22;4969;52.304;4.968;2022-09-09T15:19:11;25.05;57.68
9861;DHT22;4969;52.304;4.968;2022-09-09T15:21:37;25.09;57.56
9861;DHT22;4969;52.304;4.968;2022-09-09T15:24:05;25.12;57.39
9861;DHT22;4969;52.304;4.968;2022-09-09T15:26:35;25.02;57.74
9861;DHT22;4969;52.304;4.968;2022-09-09T15:29:03;25.03;57.63
9861;DHT22;4969;52.304;4.968;2022-09-09T15:31:31;25.09;57.54
9861;DHT22;4969;52.304;4.968;2022-09-09T15:33:58;25.08;57.46
9861;DHT22;4969;52.304;4.968;2022-09-09T15:36:27;25.05;57.45
9861;DHT22;4969;52.304;4.968;2022-09-09T15:38:54;25.09;57.35
9861;DHT22;4969;52.304;4.968;2022-09-09T15:41:22;25.05;56.82
9861;DHT22;4969;52.304;4.968;2022-09-09T15:43:51;24.69;58.46
9861;DHT22;4969;52.304;4.968;2022-09-09T15:46:26;24.79;58.17
9861;DHT22;4969;52.304;4.968;2022-09-09T15:48:54;25.03;57.75
9861;DHT22;4969;52.304;4.968;2022-09-09T15:51:22;25.06;57.64
9861;DHT22;4969;52.304;4.968;2022-09-09T15:53:49;25.12;57.52
9861;DHT22;4969;52.304;4.968;2022-09-09T15:56:15;25.13;57.45
9861;DHT22;4969;52.304;4.968;2022-09-09T15:58:42;25.11;57.55
9861;DHT22;4969;52.304;4.968;2022-09-09T16:01:10;25.11;57.83
9861;DHT22;4969;52.304;4.968;2022-09-09T16:03:39;25.13;57.71
9861;DHT22;4969;52.304;4.968;2022-09-09T16:06:07;25.13;57.87
9861;DHT22;4969;52.304;4.968;2022-09-09T16:08:34;25.11;57.95
9861;DHT22;4969;52.304;4.968;2022-09-09T16:11:05;25.09;58.14
9861;DHT22;4969;52.304;4.968;2022-09-09T16:13:33;25.11;58.37
9861;DHT22;4969;52.304;4.968;2022-09-09T16:16:00;25.11;58.66
9861;DHT22;4969;52.304;4.968;2022-09-09T16:18:33;25.11;58.81
9861;DHT22;4969;52.304;4.968;2022-09-09T16:20:59;25.09;58.98
9861;DHT22;4969;52.304;4.968;2022-09-09T16:23:26;25.06;59.13
9861;DHT22;4969;52.304;4.968;2022-09-09T16:25:53;25.08;59.12